Letzte 24h
Datum & Zeit Temp. Luft-
feuchte
Wind Nieder-
schlag
Luftdruck Tendenz
IN OUT IN OUT Richtung Min. Max.
2020.10.23 18:56 15.0 °C 10.0 °C 69% 99% NW 304 ° 3 km/h 9 km/h 0.0 mm 1017.30 hPa langsam fallend
19:56 14.8 °C 9.9 °C 70% 99% NNW 347 ° 1 km/h 5 km/h 0.0 mm 1017.50 hPa gleichbleibend
20:56 14.6 °C 9.5 °C 69% 99% WSW 238 ° 0 km/h 6 km/h 0.0 mm 1017.20 hPa langsam fallend
21:56 14.5 °C 9.6 °C 69% 99% S 180 ° 0 km/h 0 km/h 0.0 mm 1017.70 hPa langsam steigend
22:56 14.4 °C 9.6 °C 69% 99% S 180 ° 0 km/h 0 km/h 0.0 mm 1017.80 hPa langsam steigend
23:56 14.3 °C 9.6 °C 69% 99% WNW 288 ° 1 km/h 6 km/h 0.0 mm 1017.90 hPa langsam steigend
2020.10.24 00:56 14.2 °C 9.5 °C 69% 99% S 180 ° 0 km/h 1 km/h 0.0 mm 1017.50 hPa langsam fallend
01:56 14.1 °C 9.5 °C 69% 99% S 180 ° 0 km/h 1 km/h 0.0 mm 1017.40 hPa langsam fallend
02:56 14.1 °C 9.6 °C 69% 99% S 180 ° 0 km/h 0 km/h 0.0 mm 1017.60 hPa langsam fallend
03:56 14.0 °C 9.6 °C 69% 99% S 180 ° 0 km/h 4 km/h 0.0 mm 1017.00 hPa langsam fallend
04:56 14.0 °C 9.5 °C 69% 99% WNW 292 ° 0 km/h 5 km/h 0.0 mm 1017.10 hPa langsam fallend
05:56 14.0 °C 12.5 °C 71% 97% SSW 212 ° 6 km/h 18 km/h 0.0 mm 1017.60 hPa gleichbleibend
06:56 14.3 °C 13.0 °C 74% 97% WSW 246 ° 19 km/h 31 km/h 0.3 mm 1017.90 hPa langsam steigend
07:56 14.7 °C 12.9 °C 77% 97% SW 236 ° 15 km/h 26 km/h 4.5 mm 1018.40 hPa langsam steigend
08:56 14.9 °C 13.1 °C 78% 99% WSW 244 ° 14 km/h 23 km/h 3.6 mm 1019.10 hPa langsam steigend
09:56 15.1 °C 13.3 °C 77% 96% WSW 245 ° 14 km/h 24 km/h 0.3 mm 1019.70 hPa steigend
10:56 15.2 °C 13.4 °C 77% 95% SW 221 ° 12 km/h 23 km/h 0.3 mm 1020.00 hPa steigend
11:56 15.7 °C 14.6 °C 76% 93% WSW 238 ° 10 km/h 19 km/h 0.3 mm 1020.20 hPa langsam steigend
12:56 16.0 °C 15.0 °C 76% 89% SW 230 ° 11 km/h 19 km/h 0.0 mm 1020.10 hPa langsam steigend
13:56 16.7 °C 15.7 °C 76% 82% SW 231 ° 12 km/h 24 km/h 0.0 mm 1019.90 hPa langsam fallend
14:56 17.1 °C 15.3 °C 74% 82% SW 232 ° 12 km/h 19 km/h 0.0 mm 1019.60 hPa langsam fallend
15:56 17.2 °C 15.1 °C 73% 82% SW 218 ° 14 km/h 26 km/h 0.0 mm 1019.60 hPa langsam fallend
16:56 17.0 °C 14.4 °C 72% 85% WSW 248 ° 14 km/h 26 km/h 0.0 mm 1019.60 hPa langsam fallend
17:56 16.6 °C 13.8 °C 72% 88% SW 233 ° 13 km/h 24 km/h 0.0 mm 1019.90 hPa langsam steigend

 

Verlauf: letzte 24h
WIND   Windrose
(Klicke ins Bild, um den Hintergrund abzuschalten)
WIND   Windverkauf 2.5h
TEMP   Temperatur 2.5h
Druck   Luftdruck 2.5h
Regen   Luftdruck 2.5h